createdAt,value
2022-12-12T00:01:13.222Z,5.08
2022-12-12T00:03:40.094Z,5.09
2022-12-12T00:06:06.958Z,5.05
2022-12-12T00:08:33.787Z,5.05
2022-12-12T00:11:00.761Z,5.01
2022-12-12T00:13:27.654Z,4.98
2022-12-12T00:15:54.468Z,5.00
2022-12-12T00:18:21.282Z,5.00
2022-12-12T00:20:54.594Z,4.96
2022-12-12T00:23:21.897Z,4.91
2022-12-12T00:25:58.812Z,4.90
2022-12-12T00:28:25.794Z,4.90
2022-12-12T00:30:52.660Z,4.89
2022-12-12T00:33:19.988Z,4.86
2022-12-12T00:35:49.858Z,4.78
2022-12-12T00:38:17.325Z,4.78
2022-12-12T00:40:44.318Z,4.74
2022-12-12T00:43:11.353Z,4.80
2022-12-12T00:45:38.828Z,4.82
2022-12-12T00:48:05.862Z,4.92
2022-12-12T00:50:33.664Z,4.91
2022-12-12T00:53:02.104Z,4.82
2022-12-12T00:55:29.127Z,4.83
2022-12-12T00:57:55.973Z,4.80
2022-12-12T01:00:22.802Z,4.78
2022-12-12T01:02:49.853Z,4.87
2022-12-12T01:05:17.135Z,4.81
2022-12-12T01:07:43.983Z,4.90
2022-12-12T01:10:10.754Z,4.96
2022-12-12T01:12:37.679Z,5.00
2022-12-12T01:15:06.161Z,4.97
2022-12-12T01:17:38.113Z,4.95
2022-12-12T01:20:06.735Z,4.96
2022-12-12T01:22:33.635Z,4.99
2022-12-12T01:25:01.090Z,5.06
2022-12-12T01:27:28.323Z,5.10
2022-12-12T01:29:56.435Z,5.02
2022-12-12T01:32:23.219Z,5.01
2022-12-12T01:34:49.942Z,4.94
2022-12-12T01:37:16.886Z,5.07
2022-12-12T01:39:43.933Z,5.11
2022-12-12T01:42:13.272Z,5.07
2022-12-12T01:44:53.418Z,5.15
2022-12-12T01:47:21.318Z,5.17
2022-12-12T01:50:02.084Z,5.23
2022-12-12T01:52:31.124Z,5.25
2022-12-12T01:55:00.170Z,5.35
2022-12-12T01:57:30.004Z,5.28
2022-12-12T01:59:58.314Z,5.15
2022-12-12T02:02:25.492Z,5.20
2022-12-12T02:04:52.501Z,5.20
2022-12-12T02:07:19.333Z,5.28
2022-12-12T02:09:47.698Z,5.31
2022-12-12T02:12:14.979Z,5.37
2022-12-12T02:14:44.062Z,5.41
2022-12-12T02:17:16.702Z,5.41
2022-12-12T02:19:43.361Z,5.38
2022-12-12T02:22:25.338Z,5.36
2022-12-12T02:24:55.136Z,5.43
2022-12-12T02:27:24.961Z,5.48
2022-12-12T02:29:54.895Z,5.51
2022-12-12T02:32:35.503Z,5.53
2022-12-12T02:35:11.454Z,5.57
2022-12-12T02:37:44.218Z,5.63
2022-12-12T02:40:16.607Z,5.69
2022-12-12T02:43:02.202Z,5.70
2022-12-12T02:45:32.153Z,5.77
2022-12-12T02:48:04.053Z,5.58
2022-12-12T02:50:31.995Z,5.65
2022-12-12T02:53:00.680Z,5.60
2022-12-12T02:55:27.443Z,5.46
2022-12-12T02:57:57.708Z,5.41
2022-12-12T03:00:24.434Z,5.41
2022-12-12T03:03:25.921Z,5.38
2022-12-12T03:06:41.032Z,5.38
2022-12-12T03:09:08.039Z,5.44
2022-12-12T03:11:42.511Z,5.55
2022-12-12T03:14:16.990Z,5.66
2022-12-12T03:17:09.321Z,5.63
2022-12-12T03:19:48.974Z,5.71
2022-12-12T03:22:15.750Z,5.64
2022-12-12T03:24:51.731Z,5.66
2022-12-12T03:27:31.433Z,5.46
2022-12-12T03:30:02.128Z,5.60
2022-12-12T03:32:33.700Z,5.60
2022-12-12T03:35:03.217Z,5.60
2022-12-12T03:37:38.963Z,5.50
2022-12-12T03:40:11.771Z,5.48
2022-12-12T03:42:38.559Z,5.46
2022-12-12T03:45:14.674Z,5.37
2022-12-12T03:47:48.249Z,5.37
2022-12-12T03:50:22.595Z,5.37
2022-12-12T03:53:02.414Z,5.43
2022-12-12T03:55:35.061Z,5.44
2022-12-12T03:58:14.122Z,5.45
2022-12-12T04:00:42.124Z,5.41
2022-12-12T04:03:18.159Z,5.37
2022-12-12T04:06:29.638Z,5.31
2022-12-12T04:09:19.194Z,5.18
2022-12-12T04:12:23.409Z,5.19
2022-12-12T04:14:56.294Z,5.21
2022-12-12T04:17:29.231Z,5.21
2022-12-12T04:20:19.336Z,5.28
2022-12-12T04:23:10.716Z,5.42
2022-12-12T04:26:05.597Z,5.38
2022-12-12T04:28:32.763Z,5.37
2022-12-12T04:31:02.729Z,5.30
2022-12-12T04:33:34.263Z,5.32
2022-12-12T04:36:02.666Z,5.32
2022-12-12T04:38:29.839Z,5.43
2022-12-12T04:40:58.517Z,5.53
2022-12-12T04:43:28.518Z,5.45
2022-12-12T04:45:58.894Z,5.40
2022-12-12T04:48:38.056Z,5.35
2022-12-12T04:51:06.673Z,5.43
2022-12-12T04:53:35.953Z,5.39
2022-12-12T04:56:07.030Z,5.32
2022-12-12T04:58:33.961Z,5.35
2022-12-12T05:01:07.673Z,5.39
2022-12-12T05:03:53.074Z,5.43
2022-12-12T05:06:28.790Z,5.50
2022-12-12T05:08:57.131Z,5.47
2022-12-12T05:11:24.161Z,5.48
2022-12-12T05:13:51.230Z,5.42
2022-12-12T05:16:29.822Z,5.51
2022-12-12T05:18:57.206Z,5.59
2022-12-12T05:21:24.052Z,5.52
2022-12-12T05:23:50.905Z,5.43
2022-12-12T05:26:28.610Z,5.46
2022-12-12T05:28:55.757Z,5.44
2022-12-12T05:31:22.646Z,5.45
2022-12-12T05:33:49.783Z,5.45
2022-12-12T05:36:16.772Z,5.49
2022-12-12T05:38:43.644Z,5.52
2022-12-12T05:41:11.774Z,5.57
2022-12-12T05:43:38.684Z,5.63
2022-12-12T05:46:06.999Z,5.54
2022-12-12T05:48:33.953Z,5.51
2022-12-12T05:51:01.440Z,5.52
2022-12-12T05:53:28.431Z,5.54
2022-12-12T05:55:55.409Z,5.48
2022-12-12T05:58:22.173Z,5.50
2022-12-12T06:00:49.711Z,5.48
2022-12-12T06:03:16.656Z,5.41
2022-12-12T06:05:43.760Z,5.42
2022-12-12T06:08:10.571Z,5.46
2022-12-12T06:10:37.436Z,5.50
2022-12-12T06:13:04.214Z,5.50
2022-12-12T06:15:31.227Z,5.59
2022-12-12T06:17:58.814Z,5.61
2022-12-12T06:20:25.711Z,5.59
2022-12-12T06:22:53.893Z,5.61
2022-12-12T06:25:21.086Z,5.63
2022-12-12T06:27:48.114Z,5.62
2022-12-12T06:30:14.979Z,5.66
2022-12-12T06:32:41.945Z,5.69
2022-12-12T06:35:09.823Z,5.71
2022-12-12T06:37:36.747Z,5.77
2022-12-12T06:40:04.227Z,5.77
2022-12-12T06:42:31.046Z,5.86
2022-12-12T06:44:57.961Z,5.82
2022-12-12T06:47:24.749Z,5.88
2022-12-12T06:49:51.556Z,5.85
2022-12-12T06:52:18.535Z,5.79
2022-12-12T06:54:45.311Z,5.69
2022-12-12T06:57:12.049Z,5.52
2022-12-12T06:59:38.851Z,5.37
2022-12-12T07:02:06.147Z,5.29
2022-12-12T07:04:32.902Z,5.25
2022-12-12T07:06:59.701Z,5.24
2022-12-12T07:09:26.597Z,5.31
2022-12-12T07:11:53.426Z,5.30
2022-12-12T07:14:20.121Z,5.34
2022-12-12T07:16:47.078Z,5.45
2022-12-12T07:19:13.931Z,5.37
2022-12-12T07:21:40.948Z,5.30
2022-12-12T07:24:07.843Z,5.36
2022-12-12T07:26:34.648Z,5.26
2022-12-12T07:29:03.931Z,5.32
2022-12-12T07:31:30.919Z,5.42
2022-12-12T07:33:57.716Z,5.45
2022-12-12T07:36:24.550Z,5.42
2022-12-12T07:38:51.538Z,5.52
2022-12-12T07:41:20.630Z,5.64
2022-12-12T07:43:48.229Z,5.70
2022-12-12T07:46:17.318Z,5.66
2022-12-12T07:48:44.989Z,5.75
2022-12-12T07:51:12.160Z,5.83
2022-12-12T07:53:39.014Z,6.01
2022-12-12T07:56:09.116Z,6.12
2022-12-12T07:58:36.433Z,6.15
2022-12-12T08:01:15.203Z,6.12
2022-12-12T08:03:42.825Z,6.19
2022-12-12T08:06:09.787Z,6.26
2022-12-12T08:08:36.587Z,6.28
2022-12-12T08:11:11.151Z,6.32
2022-12-12T08:13:38.717Z,6.37
2022-12-12T08:16:06.385Z,6.34
2022-12-12T08:18:33.796Z,6.34
2022-12-12T08:21:00.871Z,6.46
2022-12-12T08:23:27.657Z,6.57
2022-12-12T08:25:54.559Z,6.68
2022-12-12T08:28:21.270Z,6.71
2022-12-12T08:30:51.826Z,6.82
2022-12-12T08:33:18.969Z,6.82
2022-12-12T08:35:45.877Z,6.87
2022-12-12T08:38:12.735Z,6.98
2022-12-12T08:40:39.899Z,7.05
2022-12-12T08:43:06.696Z,7.11
2022-12-12T08:45:33.771Z,7.08
2022-12-12T08:48:00.644Z,7.12
2022-12-12T08:50:27.447Z,7.19
2022-12-12T08:52:54.717Z,7.01
2022-12-12T08:55:21.543Z,7.00
2022-12-12T08:57:48.508Z,7.01
2022-12-12T09:00:15.579Z,7.01
2022-12-12T09:02:43.077Z,6.98
2022-12-12T09:05:10.638Z,6.96
2022-12-12T09:07:37.834Z,6.84
2022-12-12T09:10:05.036Z,6.70
2022-12-12T09:12:34.586Z,6.62
2022-12-12T09:15:05.501Z,6.50
2022-12-12T09:17:32.173Z,6.37
2022-12-12T09:19:58.944Z,6.28
2022-12-12T09:22:25.671Z,6.17
2022-12-12T09:24:52.386Z,6.12
2022-12-12T09:27:19.075Z,6.13
2022-12-12T09:29:45.822Z,6.23
2022-12-12T09:32:12.696Z,6.20
2022-12-12T09:34:39.392Z,6.21
2022-12-12T09:37:06.384Z,6.31
2022-12-12T09:39:33.347Z,6.29
2022-12-12T09:42:09.179Z,6.32
2022-12-12T09:44:36.975Z,6.31
2022-12-12T09:47:07.039Z,6.32
2022-12-12T09:49:56.848Z,6.25
2022-12-12T09:52:32.536Z,6.24
2022-12-12T09:55:00.841Z,6.24
2022-12-12T09:57:39.618Z,6.17
2022-12-12T10:00:09.825Z,6.08
2022-12-12T10:02:54.942Z,6.01
2022-12-12T10:05:21.832Z,6.06
2022-12-12T10:08:21.234Z,6.07
2022-12-12T10:10:50.366Z,6.10
2022-12-12T10:13:28.079Z,6.09
2022-12-12T10:15:57.874Z,6.09
2022-12-12T10:18:31.050Z,6.13
2022-12-12T10:21:00.070Z,6.16
2022-12-12T10:23:42.235Z,6.18
2022-12-12T10:26:11.769Z,6.11
2022-12-12T10:28:38.633Z,6.13
2022-12-12T10:31:18.030Z,6.13
2022-12-12T10:33:47.593Z,6.21
2022-12-12T10:36:38.998Z,6.26
2022-12-12T10:39:25.937Z,6.34
2022-12-12T10:42:12.616Z,6.34
2022-12-12T10:44:57.960Z,6.42
2022-12-12T10:47:24.855Z,6.39
2022-12-12T10:50:12.969Z,6.36
2022-12-12T10:52:40.292Z,6.37
2022-12-12T10:55:18.529Z,6.33
2022-12-12T10:57:45.321Z,6.28
2022-12-12T11:00:26.874Z,6.32
2022-12-12T11:02:59.925Z,6.35
2022-12-12T11:05:29.127Z,6.41
2022-12-12T11:08:01.723Z,6.48
2022-12-12T11:10:38.489Z,6.53
2022-12-12T11:13:11.389Z,6.54
2022-12-12T11:15:58.398Z,6.50
2022-12-12T11:18:25.642Z,6.58
2022-12-12T11:21:12.694Z,6.57
2022-12-12T11:23:40.692Z,6.56
2022-12-12T11:26:18.148Z,6.59
2022-12-12T11:28:47.186Z,6.58
2022-12-12T11:31:17.472Z,6.53
2022-12-12T11:33:49.580Z,6.52
2022-12-12T11:36:18.691Z,6.59
2022-12-12T11:39:11.903Z,6.58
2022-12-12T11:41:57.113Z,6.61
2022-12-12T11:44:27.480Z,6.62
2022-12-12T11:46:54.219Z,6.63
2022-12-12T11:49:20.989Z,6.62
2022-12-12T11:51:48.487Z,6.65
2022-12-12T11:54:35.483Z,6.64
2022-12-12T11:57:22.553Z,6.71
2022-12-12T11:59:55.224Z,6.74
2022-12-12T12:02:28.124Z,6.85
2022-12-12T12:05:01.568Z,6.72
2022-12-12T12:07:31.196Z,6.64
2022-12-12T12:10:03.239Z,6.66
2022-12-12T12:12:30.101Z,6.67
2022-12-12T12:15:05.923Z,6.72
2022-12-12T12:18:08.239Z,6.82
2022-12-12T12:21:04.045Z,6.84
2022-12-12T12:23:30.866Z,6.89
2022-12-12T12:26:17.063Z,6.69
2022-12-12T12:28:52.190Z,6.64
2022-12-12T12:31:19.022Z,6.59
2022-12-12T12:34:05.138Z,6.58
2022-12-12T12:36:45.955Z,6.47
2022-12-12T12:39:12.679Z,6.38
2022-12-12T12:41:45.418Z,6.55
2022-12-12T12:44:37.765Z,6.47
2022-12-12T12:47:16.607Z,6.41
2022-12-12T12:49:53.637Z,6.35
2022-12-12T12:52:25.963Z,6.39
2022-12-12T12:54:56.910Z,6.46
2022-12-12T12:57:40.615Z,6.50
2022-12-12T13:00:16.240Z,6.55
2022-12-12T13:02:58.707Z,6.66
2022-12-12T13:05:28.429Z,6.65
2022-12-12T13:08:00.359Z,6.62
2022-12-12T13:10:28.535Z,6.58
2022-12-12T13:13:01.764Z,6.55
2022-12-12T13:15:31.519Z,6.60
2022-12-12T13:18:05.972Z,6.64
2022-12-12T13:20:34.957Z,6.72
2022-12-12T13:23:20.807Z,6.65
2022-12-12T13:26:06.439Z,6.60
2022-12-12T13:28:36.864Z,6.60
2022-12-12T13:31:06.810Z,6.50
2022-12-12T13:33:44.532Z,6.46
2022-12-12T13:36:33.095Z,6.46
2022-12-12T13:39:01.040Z,6.38
2022-12-12T13:41:28.015Z,6.28
2022-12-12T13:43:59.301Z,6.10
2022-12-12T13:46:29.127Z,6.03
2022-12-12T13:49:02.590Z,5.94
2022-12-12T13:51:32.184Z,5.93
2022-12-12T13:54:13.199Z,5.99
2022-12-12T13:56:47.367Z,5.99
2022-12-12T13:59:32.734Z,5.95
2022-12-12T14:02:00.381Z,5.92
2022-12-12T14:04:27.915Z,5.79
2022-12-12T14:07:02.786Z,5.73
2022-12-12T14:09:47.259Z,5.60
2022-12-12T14:12:31.077Z,5.53
2022-12-12T14:15:00.691Z,5.44
2022-12-12T14:17:29.534Z,5.34
2022-12-12T14:19:57.521Z,5.33
2022-12-12T14:22:30.350Z,5.35
2022-12-12T14:25:06.478Z,5.35
2022-12-12T14:27:49.360Z,5.35
2022-12-12T14:30:19.061Z,5.43
2022-12-12T14:32:48.777Z,5.59
2022-12-12T14:35:18.290Z,5.65
2022-12-12T14:37:51.739Z,5.61
2022-12-12T14:40:31.022Z,5.69
2022-12-12T14:43:19.628Z,5.76
2022-12-12T14:45:59.465Z,5.69
2022-12-12T14:48:29.851Z,5.76
2022-12-12T14:50:59.735Z,5.76
2022-12-12T14:53:29.586Z,5.71
2022-12-12T14:55:58.240Z,5.60
2022-12-12T14:58:26.915Z,5.50
2022-12-12T15:00:55.008Z,5.52
2022-12-12T15:03:23.776Z,5.45
2022-12-12T15:06:10.779Z,5.45
2022-12-12T15:08:37.586Z,5.43
2022-12-12T15:11:04.412Z,5.43
2022-12-12T15:13:31.852Z,5.39
2022-12-12T15:15:58.832Z,5.47
2022-12-12T15:18:25.771Z,5.40
2022-12-12T15:20:57.366Z,5.44
2022-12-12T15:23:24.224Z,5.44
2022-12-12T15:25:55.312Z,5.47
2022-12-12T15:28:24.378Z,5.44
2022-12-12T15:30:53.558Z,5.52
2022-12-12T15:33:22.701Z,5.50
2022-12-12T15:35:59.578Z,5.43
2022-12-12T15:38:29.036Z,5.42
2022-12-12T15:40:57.864Z,5.51
2022-12-12T15:43:28.959Z,5.54
2022-12-12T15:45:56.177Z,5.61
2022-12-12T15:48:24.273Z,5.61
2022-12-12T15:50:57.879Z,5.60
2022-12-12T15:53:26.650Z,5.55
2022-12-12T15:55:53.428Z,5.51
2022-12-12T15:58:29.164Z,5.35
2022-12-12T16:01:08.279Z,5.37
2022-12-12T16:04:06.680Z,5.39
2022-12-12T16:06:34.858Z,5.40
2022-12-12T16:09:07.693Z,5.38
2022-12-12T16:11:40.185Z,5.34
2022-12-12T16:14:25.371Z,5.30
2022-12-12T16:16:59.827Z,5.36
2022-12-12T16:19:34.347Z,5.39
2022-12-12T16:22:13.674Z,5.42
2022-12-12T16:24:47.986Z,5.35
2022-12-12T16:27:15.273Z,5.40
2022-12-12T16:29:42.472Z,5.38
2022-12-12T16:32:14.658Z,5.45
2022-12-12T16:34:42.721Z,5.35
2022-12-12T16:37:12.987Z,5.36
2022-12-12T16:39:39.846Z,5.33
2022-12-12T16:42:06.913Z,5.29
2022-12-12T16:44:33.816Z,5.22
2022-12-12T16:47:00.585Z,5.25
2022-12-12T16:49:27.809Z,5.26
2022-12-12T16:51:54.660Z,5.33
2022-12-12T16:54:21.620Z,5.33
2022-12-12T16:56:52.971Z,5.33
2022-12-12T16:59:20.085Z,5.30
2022-12-12T17:01:47.061Z,5.27
2022-12-12T17:04:18.765Z,5.21
2022-12-12T17:06:45.628Z,5.19
2022-12-12T17:09:12.303Z,5.18
2022-12-12T17:11:39.134Z,5.18
2022-12-12T17:14:06.061Z,5.10
2022-12-12T17:16:33.025Z,5.05
2022-12-12T17:19:00.187Z,4.98
2022-12-12T17:21:27.291Z,4.84
2022-12-12T17:23:54.123Z,4.85
2022-12-12T17:26:21.096Z,4.82
2022-12-12T17:28:48.190Z,4.88
2022-12-12T17:31:15.035Z,4.84
2022-12-12T17:33:50.709Z,4.87
2022-12-12T17:36:19.210Z,4.89
2022-12-12T17:38:46.030Z,4.97
2022-12-12T17:41:13.051Z,4.98
2022-12-12T17:43:41.573Z,5.05
2022-12-12T17:46:14.615Z,5.12
2022-12-12T17:48:42.657Z,5.12
2022-12-12T17:51:10.174Z,5.13
2022-12-12T17:53:38.634Z,5.12
2022-12-12T17:56:07.657Z,5.14
2022-12-12T17:58:38.899Z,5.16
2022-12-12T18:01:28.112Z,5.07
2022-12-12T18:03:55.464Z,5.01
2022-12-12T18:06:23.192Z,4.97
2022-12-12T18:08:50.478Z,5.00
2022-12-12T18:11:18.648Z,5.05
2022-12-12T18:13:48.813Z,5.02
2022-12-12T18:16:16.100Z,4.99
2022-12-12T18:18:43.786Z,4.99
2022-12-12T18:21:35.898Z,5.01
2022-12-12T18:24:02.508Z,5.02
2022-12-12T18:26:29.653Z,5.06
2022-12-12T18:28:58.321Z,5.12
2022-12-12T18:31:25.223Z,5.07
2022-12-12T18:33:53.351Z,5.08
2022-12-12T18:36:21.878Z,5.07
2022-12-12T18:38:48.730Z,5.04
2022-12-12T18:41:16.261Z,5.03
2022-12-12T18:43:43.636Z,4.73
2022-12-12T18:46:15.081Z,4.18
2022-12-12T18:48:42.942Z,3.89
2022-12-12T18:51:11.193Z,3.69
2022-12-12T18:53:38.639Z,3.46
2022-12-12T18:56:10.032Z,3.34
2022-12-12T18:58:36.977Z,3.21
2022-12-12T19:01:11.904Z,3.18
2022-12-12T19:03:39.488Z,3.26
2022-12-12T19:06:10.233Z,3.30
2022-12-12T19:08:37.760Z,3.35
2022-12-12T19:11:04.882Z,3.35
2022-12-12T19:13:31.980Z,3.42
2022-12-12T19:16:06.058Z,3.43
2022-12-12T19:18:33.166Z,3.49
2022-12-12T19:21:05.285Z,3.45
2022-12-12T19:23:32.358Z,3.40
2022-12-12T19:26:28.784Z,3.36
2022-12-12T19:28:56.871Z,3.28
2022-12-12T19:31:24.947Z,3.26
2022-12-12T19:33:51.956Z,3.21
2022-12-12T19:36:23.334Z,3.07
2022-12-12T19:38:50.903Z,3.02
2022-12-12T19:41:18.850Z,3.04
2022-12-12T19:43:46.872Z,3.02
2022-12-12T19:46:15.778Z,3.13
2022-12-12T19:48:43.265Z,3.00
2022-12-12T19:51:11.973Z,3.01
2022-12-12T19:53:43.545Z,2.92
2022-12-12T19:56:14.213Z,2.99
2022-12-12T19:58:41.854Z,3.06
2022-12-12T20:01:10.019Z,3.05
2022-12-12T20:03:37.081Z,3.04
2022-12-12T20:06:06.055Z,3.04
2022-12-12T20:08:33.557Z,3.06
2022-12-12T20:11:04.759Z,3.02
2022-12-12T20:13:31.853Z,3.01
2022-12-12T20:16:04.351Z,3.01
2022-12-12T20:18:31.321Z,2.92
2022-12-12T20:20:58.273Z,2.86
2022-12-12T20:23:25.236Z,2.86
2022-12-12T20:25:52.496Z,2.87
2022-12-12T20:28:19.357Z,2.99
2022-12-12T20:30:50.669Z,3.02
2022-12-12T20:33:20.207Z,3.02
2022-12-12T20:35:47.073Z,3.03
2022-12-12T20:38:14.064Z,3.00
2022-12-12T20:40:41.012Z,2.95
2022-12-12T20:43:08.193Z,2.97
2022-12-12T20:45:37.427Z,2.98
2022-12-12T20:48:07.553Z,3.01
2022-12-12T20:50:34.631Z,3.07
2022-12-12T20:53:01.390Z,3.13
2022-12-12T20:55:28.283Z,3.13
2022-12-12T20:57:55.641Z,3.08
2022-12-12T21:00:26.427Z,3.11
2022-12-12T21:02:53.352Z,3.03
2022-12-12T21:05:20.302Z,3.03
2022-12-12T21:07:47.587Z,2.99
2022-12-12T21:10:14.535Z,2.96
2022-12-12T21:12:41.543Z,2.94
2022-12-12T21:15:08.811Z,2.93
2022-12-12T21:17:35.654Z,2.96
2022-12-12T21:20:06.559Z,2.97
2022-12-12T21:22:33.756Z,2.98
2022-12-12T21:25:00.755Z,2.89
2022-12-12T21:27:27.602Z,2.91
2022-12-12T21:29:54.462Z,2.90
2022-12-12T21:32:21.247Z,2.90
2022-12-12T21:34:48.198Z,2.89
2022-12-12T21:37:15.274Z,2.87
2022-12-12T21:39:42.482Z,2.88
2022-12-12T21:42:09.529Z,2.82
2022-12-12T21:44:40.024Z,2.83
2022-12-12T21:47:09.504Z,2.75
2022-12-12T21:49:36.355Z,2.74
2022-12-12T21:52:04.988Z,2.79
2022-12-12T21:54:32.147Z,2.83
2022-12-12T21:56:59.970Z,2.82
2022-12-12T21:59:27.062Z,2.77
2022-12-12T22:01:58.072Z,2.82
2022-12-12T22:04:25.687Z,2.74
2022-12-12T22:06:52.824Z,2.78
2022-12-12T22:09:19.737Z,2.68
2022-12-12T22:11:49.094Z,2.65
2022-12-12T22:14:20.317Z,2.72
2022-12-12T22:16:47.322Z,2.72
2022-12-12T22:19:15.072Z,2.73
2022-12-12T22:21:44.012Z,2.78
2022-12-12T22:24:11.298Z,2.77
2022-12-12T22:26:39.042Z,2.76
2022-12-12T22:29:07.759Z,2.81
2022-12-12T22:31:35.716Z,2.81
2022-12-12T22:34:04.460Z,2.77
2022-12-12T22:36:32.491Z,2.76
2022-12-12T22:39:00.561Z,2.74
2022-12-12T22:41:29.084Z,2.69
2022-12-12T22:43:57.134Z,2.67
2022-12-12T22:46:25.624Z,2.70
2022-12-12T22:48:53.301Z,2.68
2022-12-12T22:51:22.005Z,2.68
2022-12-12T22:53:49.208Z,2.70
2022-12-12T22:56:16.379Z,2.72
2022-12-12T22:58:43.286Z,2.75
2022-12-12T23:01:11.466Z,2.76
2022-12-12T23:03:38.260Z,2.76
2022-12-12T23:06:18.613Z,2.76
2022-12-12T23:08:50.057Z,2.73
2022-12-12T23:11:17.697Z,2.53
2022-12-12T23:13:44.874Z,2.41
2022-12-12T23:16:13.561Z,2.25
2022-12-12T23:18:40.970Z,2.15
2022-12-12T23:21:14.947Z,2.14
2022-12-12T23:23:43.511Z,2.23
2022-12-12T23:26:12.393Z,2.15
2022-12-12T23:28:39.462Z,2.16
2022-12-12T23:31:10.519Z,2.03
2022-12-12T23:33:37.790Z,2.01
2022-12-12T23:36:05.625Z,2.01
2022-12-12T23:38:32.411Z,2.04
2022-12-12T23:41:02.508Z,2.02
2022-12-12T23:43:29.323Z,1.97
2022-12-12T23:45:56.400Z,1.87
2022-12-12T23:48:23.398Z,1.85
2022-12-12T23:50:50.413Z,1.82
2022-12-12T23:53:17.360Z,1.77
2022-12-12T23:55:44.166Z,1.66
2022-12-12T23:58:10.910Z,1.49
